Time;durP1;ratioP1;P1;durP2;ratioP2;P2;SDS_P1;SDS_P2;PMS_P1;PMS_P2;Temp;Humidity;BMP_temperature;BMP_pressure;BME280_temperature;BME280_humidity;BME280_pressure;Samples;Min_cycle;Max_cycle;Signal;HPM_P1;HPM_P2
2023/07/15 00:00:46;;;;;;;4.75;1.58;;;23.30;77.20;;;;;;5035359;28;20484;-81
2023/07/15 00:03:14;;;;;;;3.97;1.40;;;23.20;76.70;;;;;;5035265;28;20032;-81
2023/07/15 00:05:40;;;;;;;7.18;1.55;;;23.20;76.50;;;;;;5034981;28;20033;-82
2023/07/15 00:08:06;;;;;;;5.80;1.50;;;23.10;76.30;;;;;;5034571;28;20039;-82
2023/07/15 00:10:38;;;;;;;5.13;1.27;;;23.10;76.10;;;;;;5035080;28;20076;-81
2023/07/15 00:13:08;;;;;;;2.90;1.27;;;23.10;75.90;;;;;;5034186;28;20033;-81
2023/07/15 00:15:34;;;;;;;5.15;1.52;;;23.00;76.10;;;;;;5034260;28;20021;-82
2023/07/15 00:17:59;;;;;;;5.00;1.35;;;23.00;76.20;;;;;;5034384;28;20033;-82
2023/07/15 00:20:25;;;;;;;2.83;1.60;;;23.00;76.10;;;;;;5017196;28;20025;-82
2023/07/15 00:22:51;;;;;;;4.93;1.25;;;22.90;76.00;;;;;;5034428;28;20037;-82
2023/07/15 00:25:20;;;;;;;2.67;0.95;;;22.90;75.80;;;;;;5034022;28;20428;-80
2023/07/15 00:27:46;;;;;;;3.78;1.20;;;22.90;75.90;;;;;;5034030;28;20038;-80
2023/07/15 00:30:14;;;;;;;6.63;1.60;;;22.90;75.40;;;;;;5016284;28;20156;-80
2023/07/15 00:32:48;;;;;;;3.30;1.38;;;22.90;75.50;;;;;;5015757;28;20049;-79
2023/07/15 00:35:22;;;;;;;3.88;1.42;;;22.80;76.10;;;;;;5034046;28;20603;-79
2023/07/15 00:37:48;;;;;;;6.13;1.40;;;22.80;75.50;;;;;;5034282;28;20524;-82
2023/07/15 00:40:15;;;;;;;2.78;1.00;;;22.80;75.10;;;;;;4999261;28;20057;-80
2023/07/15 00:42:41;;;;;;;2.45;0.88;;;22.80;74.90;;;;;;5035217;28;20021;-84
2023/07/15 00:45:06;;;;;;;4.05;0.93;;;22.80;75.00;;;;;;5035778;28;20028;-83
2023/07/15 00:47:47;;;;;;;5.57;1.17;;;22.80;74.80;;;;;;5017239;28;20109;-83
2023/07/15 00:50:13;;;;;;;7.60;1.70;;;22.80;74.90;;;;;;5017483;28;20033;-84
2023/07/15 00:52:39;;;;;;;5.10;1.02;;;22.70;74.80;;;;;;5035260;28;20026;-82
2023/07/15 00:55:05;;;;;;;4.07;0.90;;;22.70;75.40;;;;;;5035708;28;20128;-82
2023/07/15 00:57:31;;;;;;;3.55;1.10;;;22.70;75.40;;;;;;5034664;28;20454;-87
2023/07/15 00:59:59;;;;;;;2.58;0.90;;;22.70;75.40;;;;;;5017700;28;20105;-83
2023/07/15 01:02:25;;;;;;;2.33;0.90;;;22.70;75.30;;;;;;5033841;28;20155;-80
2023/07/15 01:04:51;;;;;;;8.40;1.33;;;22.70;75.60;;;;;;5033749;28;20466;-81
2023/07/15 01:07:17;;;;;;;3.83;1.20;;;22.80;76.00;;;;;;5033526;28;20363;-84
2023/07/15 01:09:44;;;;;;;5.95;0.90;;;22.80;75.90;;;;;;5033451;28;20084;-85
2023/07/15 01:12:10;;;;;;;6.95;1.13;;;22.90;75.70;;;;;;5033691;28;20508;-87
2023/07/15 01:14:37;;;;;;;4.15;1.02;;;22.90;74.70;;;;;;5033489;28;20434;-84
2023/07/15 01:17:03;;;;;;;4.53;1.20;;;22.90;74.20;;;;;;5033549;28;20025;-84
2023/07/15 01:19:28;;;;;;;3.40;0.77;;;23.00;74.30;;;;;;5016934;28;20079;-83
2023/07/15 01:21:54;;;;;;;5.72;1.20;;;23.00;73.80;;;;;;5033863;28;20040;-82
2023/07/15 01:24:22;;;;;;;3.38;1.30;;;23.00;73.40;;;;;;5015866;28;20033;-83
2023/07/15 01:26:55;;;;;;;4.40;0.93;;;23.00;73.90;;;;;;5033430;28;20053;-81
2023/07/15 01:29:20;;;;;;;7.53;1.20;;;23.00;73.70;;;;;;5033844;28;20025;-83
2023/07/15 01:31:46;;;;;;;7.82;1.33;;;23.10;74.10;;;;;;5033442;28;20041;-81
2023/07/15 01:34:12;;;;;;;5.80;1.10;;;23.00;74.00;;;;;;5032603;28;20057;-81
2023/07/15 01:36:38;;;;;;;1.42;0.80;;;23.10;74.10;;;;;;5033031;28;20064;-80
2023/07/15 01:39:06;;;;;;;3.70;0.98;;;23.10;73.60;;;;;;5033471;28;20025;-80
2023/07/15 01:41:33;;;;;;;5.28;0.70;;;23.10;73.90;;;;;;5015591;28;20056;-80
2023/07/15 01:43:59;;;;;;;3.78;0.75;;;23.10;74.00;;;;;;5033840;28;20061;-80
2023/07/15 01:46:26;;;;;;;1.88;0.80;;;23.20;74.20;;;;;;5033883;28;20474;-81
2023/07/15 01:48:51;;;;;;;2.95;1.10;;;23.20;73.60;;;;;;5033345;28;20030;-81
2023/07/15 01:51:17;;;;;;;2.08;0.93;;;23.20;73.60;;;;;;5035374;28;20036;-82
2023/07/15 01:53:43;;;;;;;2.53;0.88;;;23.20;73.80;;;;;;5019383;28;20038;-83
2023/07/15 01:56:08;;;;;;;1.70;0.85;;;23.30;73.60;;;;;;5019320;28;20112;-83
2023/07/15 01:58:34;;;;;;;5.60;0.77;;;23.30;73.50;;;;;;5037028;28;20036;-82
2023/07/15 02:00:59;;;;;;;3.30;1.00;;;23.30;72.70;;;;;;5036766;28;20033;-80
2023/07/15 02:03:25;;;;;;;2.30;0.63;;;23.20;72.70;;;;;;5036702;28;20048;-80
2023/07/15 02:05:51;;;;;;;3.10;0.85;;;23.30;72.70;;;;;;5019442;28;20159;-81
2023/07/15 02:08:16;;;;;;;4.00;0.80;;;23.30;72.30;;;;;;5036785;28;20029;-81
2023/07/15 02:10:42;;;;;;;4.70;0.77;;;23.20;72.60;;;;;;5036947;28;20378;-80
2023/07/15 02:13:09;;;;;;;2.55;0.70;;;23.20;71.90;;;;;;5037158;28;20069;-80
2023/07/15 02:15:35;;;;;;;3.03;0.90;;;23.20;72.40;;;;;;5036779;28;20040;-79
2023/07/15 02:18:00;;;;;;;2.85;0.80;;;23.20;72.70;;;;;;5036622;28;20025;-80
2023/07/15 02:20:26;;;;;;;2.50;0.70;;;23.20;72.10;;;;;;5036535;28;20400;-80
2023/07/15 02:22:52;;;;;;;3.58;0.77;;;23.20;71.80;;;;;;5036858;28;20029;-80
2023/07/15 02:25:19;;;;;;;2.03;0.60;;;23.20;71.90;;;;;;5036522;28;20029;-80
2023/07/15 02:27:45;;;;;;;3.47;0.93;;;23.20;71.80;;;;;;5036647;28;20464;-80
2023/07/15 02:30:11;;;;;;;3.22;0.70;;;23.20;71.70;;;;;;5036519;28;20049;-80
2023/07/15 02:32:41;;;;;;;2.17;0.60;;;23.20;71.80;;;;;;5035827;28;20095;-79
2023/07/15 02:35:08;;;;;;;1.20;0.70;;;23.30;71.80;;;;;;5036876;28;20117;-79
2023/07/15 02:37:38;;;;;;;2.22;0.70;;;23.30;71.30;;;;;;5036217;28;20486;-79
2023/07/15 02:40:04;;;;;;;2.20;0.95;;;23.20;70.70;;;;;;5036197;28;20470;-79
2023/07/15 02:42:34;;;;;;;4.38;0.65;;;23.20;70.90;;;;;;5036252;28;20021;-79
2023/07/15 02:45:04;;;;;;;2.78;0.70;;;23.20;71.00;;;;;;5019592;28;20424;-80
2023/07/15 02:47:31;;;;;;;2.33;0.75;;;23.20;70.70;;;;;;5036094;28;20056;-80
2023/07/15 02:50:06;;;;;;;5.47;1.85;;;23.20;70.80;;;;;;5018314;28;20485;-80
2023/07/15 02:52:32;;;;;;;3.22;0.70;;;23.20;70.40;;;;;;5036338;28;20025;-80
2023/07/15 02:55:07;;;;;;;4.78;0.70;;;23.20;70.20;;;;;;5035865;28;20130;-80
2023/07/15 02:57:33;;;;;;;2.85;0.80;;;23.20;70.50;;;;;;5036327;28;20021;-82
2023/07/15 03:00:00;;;;;;;2.13;0.60;;;23.10;70.30;;;;;;5035837;28;20462;-81
2023/07/15 03:02:28;;;;;;;2.42;1.02;;;23.10;70.30;;;;;;5034624;28;20088;-81
2023/07/15 03:04:54;;;;;;;2.47;1.08;;;23.10;70.40;;;;;;5035944;28;20033;-80
2023/07/15 03:07:20;;;;;;;4.05;0.90;;;23.10;70.70;;;;;;5035320;28;20548;-81
2023/07/15 03:09:46;;;;;;;1.55;0.63;;;23.00;71.00;;;;;;5018241;28;20076;-82
2023/07/15 03:12:12;;;;;;;5.22;0.60;;;23.00;71.30;;;;;;5035659;28;20033;-81
2023/07/15 03:14:38;;;;;;;3.05;0.80;;;23.00;71.40;;;;;;5035743;28;20039;-83
2023/07/15 03:17:04;;;;;;;3.80;0.68;;;23.00;71.40;;;;;;5017898;28;20121;-80
2023/07/15 03:19:31;;;;;;;2.70;0.77;;;23.00;71.40;;;;;;5035427;28;20050;-84
2023/07/15 03:21:57;;;;;;;3.22;1.02;;;23.00;71.50;;;;;;5035798;28;20040;-83
2023/07/15 03:24:25;;;;;;;2.35;0.95;;;23.00;71.50;;;;;;5018417;28;20064;-83
2023/07/15 03:26:53;;;;;;;3.55;0.68;;;23.00;71.60;;;;;;5035568;28;20021;-82
2023/07/15 03:29:20;;;;;;;3.45;0.60;;;23.00;71.50;;;;;;5017657;28;20036;-82
2023/07/15 03:31:45;;;;;;;4.05;0.63;;;22.90;71.50;;;;;;5035278;28;20034;-82
2023/07/15 03:34:11;;;;;;;1.60;0.70;;;22.90;71.70;;;;;;5035127;28;20049;-82
2023/07/15 03:36:37;;;;;;;1.40;0.50;;;23.00;72.00;;;;;;5017778;28;20033;-82
2023/07/15 03:39:02;;;;;;;3.13;0.70;;;22.90;72.00;;;;;;5035073;28;20032;-82
2023/07/15 03:41:28;;;;;;;2.97;0.63;;;22.90;72.30;;;;;;5034860;28;20478;-82
2023/07/15 03:43:54;;;;;;;1.88;0.70;;;22.90;72.50;;;;;;5034813;28;20508;-82
2023/07/15 03:46:19;;;;;;;2.90;0.65;;;22.90;72.70;;;;;;5017858;28;20026;-82
2023/07/15 03:48:45;;;;;;;2.15;0.50;;;22.90;73.10;;;;;;5035707;28;20037;-82
2023/07/15 03:51:11;;;;;;;6.22;0.57;;;22.90;73.20;;;;;;5035392;28;20068;-82
2023/07/15 03:53:37;;;;;;;2.90;0.80;;;23.00;73.10;;;;;;5017709;28;20073;-82
2023/07/15 03:56:03;;;;;;;4.18;0.60;;;23.00;73.10;;;;;;5034755;28;20030;-81
2023/07/15 03:58:28;;;;;;;4.32;0.77;;;22.90;73.00;;;;;;5016813;28;20060;-82
2023/07/15 04:00:54;;;;;;;1.92;0.90;;;22.90;72.90;;;;;;5034711;28;20036;-80
2023/07/15 04:03:20;;;;;;;4.95;0.90;;;22.80;72.70;;;;;;5016935;28;20125;-80
2023/07/15 04:05:46;;;;;;;4.85;0.80;;;22.80;72.60;;;;;;5017435;28;20029;-80
2023/07/15 04:08:12;;;;;;;3.90;0.82;;;22.80;72.80;;;;;;5034593;28;20116;-79
2023/07/15 04:10:38;;;;;;;1.35;0.60;;;22.80;73.10;;;;;;5034549;28;20100;-80
2023/07/15 04:13:04;;;;;;;2.58;0.70;;;22.80;73.30;;;;;;5017003;28;20133;-79
2023/07/15 04:15:30;;;;;;;3.05;0.70;;;22.80;73.80;;;;;;5034076;28;20079;-80
2023/07/15 04:17:56;;;;;;;1.85;0.77;;;22.90;74.10;;;;;;5034275;28;20462;-82
2023/07/15 04:20:21;;;;;;;2.30;0.77;;;22.90;73.70;;;;;;5034062;28;20029;-82
2023/07/15 04:22:47;;;;;;;2.10;0.80;;;22.90;73.50;;;;;;5034340;28;20051;-82
2023/07/15 04:25:14;;;;;;;1.85;0.80;;;22.90;73.50;;;;;;5034355;28;20029;-81
2023/07/15 04:27:41;;;;;;;2.00;1.00;;;22.90;73.90;;;;;;5034079;28;20025;-82
2023/07/15 04:30:11;;;;;;;4.03;0.90;;;22.90;74.10;;;;;;5016501;28;20032;-82
2023/07/15 04:32:36;;;;;;;3.78;1.00;;;22.90;74.00;;;;;;5034549;28;20033;-81
2023/07/15 04:35:03;;;;;;;2.13;0.98;;;22.90;74.30;;;;;;5016351;28;20442;-82
2023/07/15 04:37:29;;;;;;;2.17;0.88;;;22.90;74.80;;;;;;5034271;28;20113;-82
2023/07/15 04:39:55;;;;;;;2.17;0.70;;;22.90;75.10;;;;;;4999998;28;20124;-82
2023/07/15 04:42:21;;;;;;;1.20;0.55;;;22.90;75.30;;;;;;5033934;28;20108;-82
2023/07/15 04:44:46;;;;;;;2.20;0.70;;;22.90;75.50;;;;;;5033768;28;20037;-82
2023/07/15 04:47:12;;;;;;;1.83;0.75;;;23.00;75.70;;;;;;5033851;28;20377;-82
2023/07/15 04:49:38;;;;;;;1.70;0.77;;;23.00;75.80;;;;;;5016169;28;20038;-82
2023/07/15 04:52:04;;;;;;;1.75;0.95;;;23.00;75.90;;;;;;5034303;28;20025;-81
2023/07/15 04:54:30;;;;;;;2.70;0.80;;;23.00;75.80;;;;;;5033726;28;20065;-82
2023/07/15 04:56:56;;;;;;;1.85;0.80;;;23.00;75.60;;;;;;5034256;28;20025;-82
2023/07/15 04:59:22;;;;;;;3.08;0.90;;;23.00;75.50;;;;;;5033395;28;20037;-82
2023/07/15 05:01:48;;;;;;;3.47;0.80;;;23.00;75.30;;;;;;5034010;28;20021;-82
2023/07/15 05:04:14;;;;;;;2.70;0.50;;;23.10;75.60;;;;;;5033656;28;20037;-82
2023/07/15 05:06:39;;;;;;;4.53;0.88;;;23.00;75.00;;;;;;5017013;28;20038;-82
2023/07/15 05:09:05;;;;;;;2.45;0.98;;;23.00;75.40;;;;;;5033518;28;20029;-84
2023/07/15 05:11:31;;;;;;;2.25;0.85;;;23.00;75.50;;;;;;5033626;28;20033;-85
2023/07/15 05:13:56;;;;;;;1.73;0.80;;;23.00;75.20;;;;;;5033468;28;20030;-85
2023/07/15 05:16:22;;;;;;;3.65;0.82;;;23.00;75.40;;;;;;5033460;28;20393;-82
2023/07/15 05:18:47;;;;;;;3.13;0.75;;;23.00;75.20;;;;;;5033822;28;20025;-82
2023/07/15 05:21:14;;;;;;;3.08;0.60;;;23.00;75.00;;;;;;5033544;28;20025;-82
2023/07/15 05:23:40;;;;;;;2.88;0.88;;;23.10;75.20;;;;;;5033790;28;20033;-82
2023/07/15 05:26:05;;;;;;;5.57;1.05;;;23.10;75.20;;;;;;5035132;28;20458;-82
2023/07/15 05:28:32;;;;;;;3.55;0.90;;;23.00;75.20;;;;;;5019976;28;20478;-82
2023/07/15 05:30:59;;;;;;;1.85;0.80;;;23.10;75.30;;;;;;5037762;28;20029;-83
2023/07/15 05:33:25;;;;;;;3.95;0.95;;;23.00;75.40;;;;;;5037439;28;20505;-83
2023/07/15 05:35:50;;;;;;;9.07;1.50;;;23.10;75.40;;;;;;5038005;28;20100;-82
2023/07/15 05:38:16;;;;;;;3.22;0.80;;;23.10;75.50;;;;;;5037763;28;20036;-82
2023/07/15 05:40:42;;;;;;;3.33;0.90;;;23.10;75.50;;;;;;5038179;28;20125;-81
2023/07/15 05:43:08;;;;;;;2.58;0.90;;;23.00;75.70;;;;;;5037374;28;20029;-82
2023/07/15 05:45:34;;;;;;;1.88;0.80;;;23.00;76.10;;;;;;5037062;28;20485;-81
2023/07/15 05:48:00;;;;;;;5.57;1.17;;;23.00;76.50;;;;;;5037309;28;20026;-79
2023/07/15 05:50:26;;;;;;;4.00;0.80;;;23.00;76.80;;;;;;5037165;28;20026;-80
2023/07/15 05:52:52;;;;;;;4.43;0.82;;;23.00;77.10;;;;;;5037114;28;20445;-81
2023/07/15 05:55:19;;;;;;;4.00;1.20;;;23.10;77.30;;;;;;5038004;28;20029;-83
2023/07/15 05:57:45;;;;;;;4.78;0.90;;;23.20;77.30;;;;;;5038465;28;20179;-83
2023/07/15 06:00:11;;;;;;;2.75;0.70;;;23.20;77.30;;;;;;5037380;28;20060;-83
2023/07/15 06:02:38;;;;;;;2.80;1.00;;;23.20;77.80;;;;;;5019575;28;20386;-83
2023/07/15 06:05:04;;;;;;;4.13;1.40;;;23.20;78.00;;;;;;5037019;28;20039;-79
2023/07/15 06:07:30;;;;;;;3.10;1.10;;;23.20;78.80;;;;;;5019928;28;20120;-83
2023/07/15 06:09:56;;;;;;;2.53;0.70;;;23.30;78.30;;;;;;5037747;28;20117;-84
2023/07/15 06:12:21;;;;;;;2.55;0.82;;;23.30;78.40;;;;;;5019968;28;20461;-82
2023/07/15 06:14:47;;;;;;;4.03;0.93;;;23.30;78.40;;;;;;5036904;28;20092;-82
2023/07/15 06:17:13;;;;;;;3.13;0.75;;;23.40;78.60;;;;;;5036665;28;20025;-82
2023/07/15 06:19:38;;;;;;;2.47;0.90;;;23.40;78.70;;;;;;5036337;28;20358;-81
2023/07/15 06:22:05;;;;;;;2.30;0.70;;;23.40;79.00;;;;;;5036612;28;20064;-80
2023/07/15 06:24:31;;;;;;;1.90;0.90;;;23.50;79.20;;;;;;5036770;28;20094;-81
2023/07/15 06:26:57;;;;;;;2.17;0.90;;;23.60;79.40;;;;;;5036483;28;20481;-81
2023/07/15 06:29:24;;;;;;;4.97;0.90;;;23.60;79.60;;;;;;5036899;28;20033;-81
2023/07/15 06:31:50;;;;;;;3.08;0.90;;;23.70;79.40;;;;;;5036249;28;20048;-80
2023/07/15 06:34:16;;;;;;;3.85;0.95;;;23.80;79.60;;;;;;5017937;28;20136;-80
2023/07/15 06:36:42;;;;;;;3.05;1.00;;;23.80;79.60;;;;;;5036083;28;20080;-79
2023/07/15 06:39:08;;;;;;;2.90;0.88;;;23.90;79.30;;;;;;5018692;28;20025;-80
2023/07/15 06:41:33;;;;;;;2.97;0.77;;;24.00;79.20;;;;;;5035933;28;20079;-80
2023/07/15 06:43:59;;;;;;;3.80;1.10;;;24.00;79.10;;;;;;5019036;28;20075;-80
2023/07/15 06:46:25;;;;;;;1.48;0.80;;;24.10;78.70;;;;;;5036367;28;20500;-81
2023/07/15 06:48:51;;;;;;;2.35;1.08;;;24.10;78.90;;;;;;5036044;28;20036;-84
2023/07/15 06:51:18;;;;;;;3.35;0.93;;;24.10;79.80;;;;;;5018363;28;20056;-84
2023/07/15 06:53:43;;;;;;;3.40;0.80;;;24.10;79.60;;;;;;5036035;28;20038;-83
2023/07/15 06:56:10;;;;;;;2.22;1.17;;;24.10;79.70;;;;;;5036156;28;20437;-83
2023/07/15 06:58:35;;;;;;;4.43;0.80;;;24.20;80.30;;;;;;5018178;28;20041;-82
2023/07/15 07:01:01;;;;;;;3.85;0.88;;;24.20;80.70;;;;;;5001845;28;20055;-82
2023/07/15 07:03:27;;;;;;;2.95;0.80;;;24.30;81.20;;;;;;5018252;28;20037;-87
2023/07/15 07:05:53;;;;;;;4.60;0.98;;;24.30;81.80;;;;;;5018903;28;20343;-86
2023/07/15 07:08:22;;;;;;;1.92;0.90;;;24.30;82.30;;;;;;5035773;28;20033;-85
2023/07/15 07:10:50;;;;;;;3.80;1.00;;;24.30;82.60;;;;;;5035917;28;20030;-83
2023/07/15 07:13:16;;;;;;;3.13;1.10;;;24.40;83.20;;;;;;5018783;28;20099;-82
2023/07/15 07:15:42;;;;;;;1.52;0.80;;;24.40;83.60;;;;;;5018497;28;20466;-82
2023/07/15 07:18:07;;;;;;;6.28;0.90;;;24.40;84.30;;;;;;5035988;28;20034;-86
2023/07/15 07:20:33;;;;;;;3.47;1.00;;;24.40;84.30;;;;;;5017996;28;20082;-84
2023/07/15 07:22:58;;;;;;;1.92;1.00;;;24.50;85.00;;;;;;5018354;28;20140;-85
2023/07/15 07:25:24;;;;;;;5.38;1.10;;;24.40;84.80;;;;;;5035581;28;20062;-84
2023/07/15 07:27:50;;;;;;;2.17;0.90;;;24.50;84.50;;;;;;5035716;28;20136;-84
2023/07/15 07:30:16;;;;;;;2.63;0.90;;;24.50;84.30;;;;;;5017765;28;20025;-86
2023/07/15 07:32:42;;;;;;;2.60;0.90;;;24.60;84.30;;;;;;5035773;28;20127;-84
2023/07/15 07:35:08;;;;;;;2.95;1.10;;;24.60;84.20;;;;;;5017402;28;20080;-83
2023/07/15 07:37:33;;;;;;;2.70;0.80;;;24.70;84.20;;;;;;5035329;28;20033;-84
2023/07/15 07:39:59;;;;;;;1.60;0.60;;;24.80;84.30;;;;;;5035794;28;20029;-85
2023/07/15 07:42:25;;;;;;;2.35;0.52;;;24.90;85.10;;;;;;5035386;28;20041;-77
2023/07/15 07:44:51;;;;;;;4.43;1.05;;;25.00;85.20;;;;;;5035395;28;20112;-84
2023/07/15 07:47:16;;;;;;;3.70;0.57;;;25.10;84.50;;;;;;5017233;28;20083;-83
2023/07/15 07:49:42;;;;;;;2.38;0.60;;;25.20;84.20;;;;;;5034423;28;20480;-82
2023/07/15 07:52:08;;;;;;;1.50;0.70;;;25.20;83.80;;;;;;5017208;28;20029;-83
2023/07/15 07:54:33;;;;;;;2.42;0.70;;;25.30;83.50;;;;;;5034795;28;20037;-84
2023/07/15 07:56:59;;;;;;;4.35;0.80;;;25.40;83.00;;;;;;5034676;28;20057;-84
2023/07/15 07:59:24;;;;;;;1.95;0.63;;;25.40;81.70;;;;;;5035368;28;20037;-86
2023/07/15 08:01:51;;;;;;;3.67;0.60;;;25.50;81.50;;;;;;5035379;28;20084;-85
2023/07/15 08:04:16;;;;;;;2.15;0.70;;;25.50;81.60;;;;;;5038295;28;20037;-89
2023/07/15 08:06:42;;;;;;;3.33;0.70;;;25.60;82.40;;;;;;5038389;28;20031;-87
2023/07/15 08:09:08;;;;;;;2.22;0.52;;;25.50;81.30;;;;;;5035827;28;20029;-82
2023/07/15 08:11:33;;;;;;;1.70;0.80;;;25.40;81.00;;;;;;5034597;28;20061;-81
2023/07/15 08:13:59;;;;;;;4.80;1.17;;;25.40;81.00;;;;;;5034091;28;20068;-78
2023/07/15 08:16:36;;;;;;;3.03;0.90;;;25.40;81.00;;;;;;5016110;28;20065;-73
2023/07/15 08:19:03;;;;;;;3.20;0.68;;;25.50;80.90;;;;;;5016597;28;20158;-73
2023/07/15 08:21:29;;;;;;;3.33;0.57;;;25.50;80.60;;;;;;5033759;28;20026;-75
2023/07/15 08:23:55;;;;;;;7.15;0.60;;;25.60;80.80;;;;;;5000002;28;20040;-80
2023/07/15 08:26:22;;;;;;;2.40;0.60;;;25.60;80.40;;;;;;5000026;28;20120;-79
2023/07/15 08:28:48;;;;;;;3.20;0.90;;;25.60;81.00;;;;;;5033524;28;20029;-81
2023/07/15 08:31:14;;;;;;;5.35;0.50;;;25.50;82.30;;;;;;5016205;28;20117;-79
2023/07/15 08:33:40;;;;;;;3.05;0.45;;;25.40;81.60;;;;;;4999225;28;20144;-78
2023/07/15 08:36:06;;;;;;;3.33;0.40;;;25.30;82.20;;;;;;4999394;28;20036;-79
2023/07/15 08:38:31;;;;;;;1.63;0.25;;;25.30;83.20;;;;;;5015882;28;20381;-79
2023/07/15 08:40:59;;;;;;;1.58;0.20;;;25.30;83.00;;;;;;5016237;28;20075;-80
2023/07/15 08:43:25;;;;;;;0.70;0.25;;;25.20;83.50;;;;;;4999485;28;20516;-76
2023/07/15 08:45:57;;;;;;;2.13;0.50;;;25.20;83.70;;;;;;5015445;28;20052;-77
2023/07/15 08:48:22;;;;;;;3.37;0.20;;;25.10;83.60;;;;;;5033400;28;20053;-78
2023/07/15 08:50:49;;;;;;;2.58;0.40;;;25.10;83.80;;;;;;5015262;28;20064;-76
2023/07/15 08:53:26;;;;;;;3.17;0.30;;;25.10;84.50;;;;;;4999050;28;20049;-77
2023/07/15 08:55:57;;;;;;;1.27;0.40;;;25.10;84.60;;;;;;4999897;28;20033;-76
2023/07/15 08:58:24;;;;;;;1.20;0.30;;;25.10;84.50;;;;;;5015666;28;20025;-76
2023/07/15 09:00:51;;;;;;;3.88;0.40;;;25.10;84.20;;;;;;5032353;28;20033;-76
2023/07/15 09:03:17;;;;;;;0.60;0.20;;;25.20;85.00;;;;;;5033476;28;20029;-77
2023/07/15 09:05:43;;;;;;;3.42;0.40;;;25.20;86.20;;;;;;5033395;28;20450;-75
2023/07/15 09:08:13;;;;;;;1.67;0.40;;;25.20;86.00;;;;;;5033032;28;20022;-76
2023/07/15 09:10:54;;;;;;;2.42;0.40;;;25.30;85.90;;;;;;5033025;28;20064;-77
2023/07/15 09:13:31;;;;;;;3.42;0.40;;;25.30;85.00;;;;;;5015377;28;20052;-76
2023/07/15 09:15:58;;;;;;;2.78;0.35;;;25.30;84.80;;;;;;5033085;28;20091;-76
2023/07/15 09:18:24;;;;;;;3.28;0.50;;;25.20;83.90;;;;;;5015190;28;20025;-76
2023/07/15 09:20:50;;;;;;;3.17;0.50;;;25.30;84.30;;;;;;5015803;28;20171;-76
2023/07/15 09:23:16;;;;;;;2.75;0.50;;;25.20;83.90;;;;;;5015267;28;20029;-77
2023/07/15 09:25:52;;;;;;;4.90;0.30;;;25.20;84.40;;;;;;5033001;28;20026;-76
2023/07/15 09:28:20;;;;;;;1.00;0.40;;;25.20;84.00;;;;;;5015702;28;20488;-76
2023/07/15 09:30:46;;;;;;;2.22;0.50;;;25.20;83.80;;;;;;5015541;28;20033;-76
2023/07/15 09:33:42;;;;;;;4.15;0.35;;;25.10;83.50;;;;;;5015251;28;20084;-75
2023/07/15 09:36:11;;;;;;;5.63;0.50;;;25.10;84.30;;;;;;4999151;28;20034;-71
2023/07/15 09:38:38;;;;;;;2.55;0.50;;;25.10;84.50;;;;;;4998837;28;20029;-71
2023/07/15 09:41:07;;;;;;;2.97;0.50;;;25.00;84.60;;;;;;5014970;28;20025;-72
2023/07/15 09:43:50;;;;;;;3.08;0.63;;;25.00;85.20;;;;;;5032467;28;20029;-72
2023/07/15 09:46:18;;;;;;;2.72;0.40;;;24.90;85.70;;;;;;5032360;28;20108;-72
2023/07/15 09:48:45;;;;;;;3.13;0.38;;;24.80;85.10;;;;;;5032563;28;20104;-71
2023/07/15 09:51:12;;;;;;;2.58;0.45;;;24.80;85.50;;;;;;5032601;28;20083;-72
2023/07/15 09:53:43;;;;;;;3.53;0.50;;;24.80;85.70;;;;;;5032497;28;20061;-71
2023/07/15 09:56:10;;;;;;;1.00;0.45;;;24.80;86.20;;;;;;5032719;28;20018;-72
2023/07/15 09:58:45;;;;;;;2.58;0.30;;;24.90;87.00;;;;;;5031682;28;20026;-72
2023/07/15 10:01:17;;;;;;;6.47;0.40;;;24.90;87.40;;;;;;5031725;28;20072;-71
2023/07/15 10:03:53;;;;;;;4.40;0.40;;;25.00;86.50;;;;;;5032307;28;20167;-71
2023/07/15 10:06:19;;;;;;;2.45;0.60;;;25.10;86.30;;;;;;5014671;28;20033;-71
2023/07/15 10:08:46;;;;;;;1.38;0.40;;;25.10;86.30;;;;;;5031948;28;20052;-72
2023/07/15 10:11:13;;;;;;;2.60;0.43;;;25.10;85.30;;;;;;5014191;28;20033;-71
2023/07/15 10:13:39;;;;;;;2.17;0.38;;;25.10;85.10;;;;;;5035788;28;20381;-72
2023/07/15 10:16:05;;;;;;;2.92;0.47;;;25.20;85.40;;;;;;5035874;28;20030;-72
2023/07/15 10:18:31;;;;;;;2.53;0.50;;;25.10;85.90;;;;;;5036041;28;20106;-71
2023/07/15 10:21:00;;;;;;;2.90;0.70;;;25.00;85.70;;;;;;5035604;28;20068;-71
2023/07/15 10:23:28;;;;;;;4.78;0.90;;;24.90;86.00;;;;;;5036013;28;20026;-72
2023/07/15 10:26:05;;;;;;;1.73;0.80;;;24.90;86.00;;;;;;5035946;28;20030;-70
2023/07/15 10:28:40;;;;;;;5.22;0.73;;;24.90;86.80;;;;;;5035835;28;20034;-71
2023/07/15 10:31:07;;;;;;;3.58;0.80;;;24.80;85.80;;;;;;5035596;28;20029;-70
2023/07/15 10:33:35;;;;;;;2.90;1.00;;;24.80;84.60;;;;;;5018054;28;20080;-71
2023/07/15 10:36:03;;;;;;;2.63;1.05;;;24.80;85.50;;;;;;5035816;28;20025;-72
2023/07/15 10:38:33;;;;;;;4.75;1.33;;;24.80;85.70;;;;;;5017918;28;20030;-71
2023/07/15 10:41:04;;;;;;;1.75;1.02;;;24.80;85.10;;;;;;5035307;28;20025;-72
2023/07/15 10:43:35;;;;;;;3.78;0.88;;;24.80;84.30;;;;;;5017409;28;20033;-72
2023/07/15 10:46:02;;;;;;;5.85;1.00;;;24.80;86.00;;;;;;5035834;28;20473;-72
2023/07/15 10:48:28;;;;;;;1.98;0.68;;;24.70;86.20;;;;;;5035305;28;20030;-73
2023/07/15 10:50:55;;;;;;;2.67;0.70;;;24.60;85.30;;;;;;5017361;28;20029;-72
2023/07/15 10:53:26;;;;;;;1.95;0.70;;;24.70;85.70;;;;;;5035509;28;20088;-71
2023/07/15 10:56:20;;;;;;;2.63;0.77;;;24.70;85.90;;;;;;5035499;28;20037;-71
2023/07/15 10:58:46;;;;;;;5.13;0.80;;;24.70;86.00;;;;;;5018019;28;20080;-71
2023/07/15 11:01:13;;;;;;;2.75;0.70;;;24.70;86.10;;;;;;5035522;28;20052;-70
2023/07/15 11:03:42;;;;;;;2.33;0.65;;;24.70;86.30;;;;;;5034922;28;20540;-70
2023/07/15 11:06:09;;;;;;;2.30;0.65;;;24.70;86.80;;;;;;5035328;28;20084;-71
2023/07/15 11:08:35;;;;;;;3.22;0.80;;;24.70;87.80;;;;;;5017331;28;20025;-70
2023/07/15 11:11:05;;;;;;;2.42;0.60;;;24.70;88.30;;;;;;5035282;28;20064;-71
2023/07/15 11:13:35;;;;;;;2.80;0.60;;;24.70;88.20;;;;;;5035069;28;20088;-71
2023/07/15 11:16:00;;;;;;;1.35;0.40;;;24.70;88.40;;;;;;5035237;28;20021;-71
2023/07/15 11:18:27;;;;;;;2.25;0.70;;;24.70;88.60;;;;;;5035049;28;20036;-71
2023/07/15 11:20:55;;;;;;;2.30;0.60;;;24.80;89.20;;;;;;5034999;28;20044;-71
2023/07/15 11:23:21;;;;;;;1.90;0.90;;;24.80;89.00;;;;;;5034186;28;20072;-71
2023/07/15 11:25:47;;;;;;;3.50;0.70;;;24.80;87.60;;;;;;5017596;28;20061;-71
2023/07/15 11:28:13;;;;;;;2.65;0.55;;;24.80;88.10;;;;;;5000672;28;20544;-70
2023/07/15 11:30:41;;;;;;;3.63;0.50;;;24.90;86.20;;;;;;5034811;28;20406;-70
2023/07/15 11:33:07;;;;;;;3.13;0.50;;;25.00;85.10;;;;;;5034354;28;20049;-71
2023/07/15 11:35:34;;;;;;;3.60;0.68;;;24.90;83.30;;;;;;5034775;28;20026;-70
2023/07/15 11:38:14;;;;;;;1.60;0.50;;;24.90;83.60;;;;;;5034237;28;20450;-71
2023/07/15 11:40:53;;;;;;;1.75;0.70;;;24.90;84.30;;;;;;5034669;28;20120;-71
2023/07/15 11:43:19;;;;;;;4.18;0.85;;;24.80;84.10;;;;;;5034218;28;20430;-72
2023/07/15 11:45:46;;;;;;;3.50;0.88;;;24.80;84.20;;;;;;5034167;28;20029;-70
2023/07/15 11:48:12;;;;;;;2.05;0.73;;;24.80;84.00;;;;;;5017446;28;20037;-70
2023/07/15 11:50:37;;;;;;;1.45;0.50;;;24.80;84.00;;;;;;5016892;28;20041;-70
2023/07/15 11:53:03;;;;;;;1.80;0.60;;;24.80;83.60;;;;;;5016471;28;20029;-71
2023/07/15 11:55:30;;;;;;;3.95;0.80;;;24.80;83.10;;;;;;5034030;28;20389;-71
2023/07/15 11:57:55;;;;;;;2.45;0.70;;;24.70;82.80;;;;;;5016631;28;20021;-71
2023/07/15 12:00:42;;;;;;;3.28;0.60;;;24.70;83.10;;;;;;5033775;28;20045;-72
2023/07/15 12:03:08;;;;;;;1.80;0.60;;;24.70;84.00;;;;;;4999487;28;20124;-71
2023/07/15 12:05:37;;;;;;;3.75;0.70;;;24.80;83.20;;;;;;5034208;28;20108;-71
2023/07/15 12:08:11;;;;;;;2.50;0.70;;;24.90;82.80;;;;;;5034191;28;20061;-71
2023/07/15 12:10:58;;;;;;;1.30;0.60;;;25.00;82.00;;;;;;5033936;28;20025;-72
2023/07/15 12:13:25;;;;;;;2.22;0.70;;;25.00;80.40;;;;;;5033661;28;20033;-71
2023/07/15 12:15:50;;;;;;;3.55;0.90;;;25.00;80.40;;;;;;5033871;28;20037;-74
2023/07/15 12:18:16;;;;;;;2.55;0.60;;;25.10;81.50;;;;;;5016578;28;20040;-74
2023/07/15 12:20:42;;;;;;;1.73;0.73;;;25.10;80.60;;;;;;5033847;28;20500;-73
2023/07/15 12:23:08;;;;;;;3.35;0.57;;;25.10;79.60;;;;;;5016393;28;20435;-75
2023/07/15 12:25:34;;;;;;;2.25;0.55;;;25.10;79.60;;;;;;5015908;28;20096;-74
2023/07/15 12:27:59;;;;;;;2.13;0.60;;;25.10;79.60;;;;;;5033472;28;20025;-73
2023/07/15 12:30:25;;;;;;;2.00;0.63;;;25.10;79.20;;;;;;5033473;28;20473;-74
2023/07/15 12:32:51;;;;;;;3.05;0.40;;;25.20;78.60;;;;;;5033272;28;20083;-75
2023/07/15 12:35:16;;;;;;;2.10;0.60;;;25.30;78.40;;;;;;5033189;28;20038;-73
2023/07/15 12:37:42;;;;;;;3.33;0.57;;;25.50;79.00;;;;;;4999444;28;20124;-75
2023/07/15 12:40:08;;;;;;;6.97;1.13;;;25.60;78.60;;;;;;5015838;28;20068;-75
2023/07/15 12:42:35;;;;;;;3.63;0.50;;;25.70;78.70;;;;;;5016191;28;20044;-76
2023/07/15 12:45:01;;;;;;;3.65;0.70;;;25.70;77.50;;;;;;5033676;28;20378;-76
2023/07/15 12:47:27;;;;;;;3.92;0.70;;;25.70;76.90;;;;;;5035127;28;20025;-79